Time;durP1;ratioP1;P1;durP2;ratioP2;P2;SDS_P1;SDS_P2;PMS_P1;PMS_P2;Temp;Humidity;BMP_temperature;BMP_pressure;BME280_temperature;BME280_humidity;BME280_pressure;Samples;Min_cycle;Max_cycle;Signal;HPM_P1;HPM_P2
2022/11/09 00:00:42;;;;;;;6.43;2.35;;;12.80;99.90;;;;;;5117280;28;20046;-79
2022/11/09 00:03:09;;;;;;;4.67;2.60;;;12.70;99.90;;;;;;5117330;28;20083;-80
2022/11/09 00:05:34;;;;;;;8.75;2.92;;;12.90;99.90;;;;;;5117338;28;20075;-79
2022/11/09 00:08:00;;;;;;;5.80;2.50;;;12.90;99.90;;;;;;5117252;28;20082;-79
2022/11/09 00:10:26;;;;;;;5.72;2.30;;;13.20;99.90;;;;;;5117632;28;20051;-80
2022/11/09 00:12:51;;;;;;;7.25;2.20;;;12.70;99.90;;;;;;5117961;28;20048;-80
2022/11/09 00:15:17;;;;;;;5.88;2.60;;;12.70;99.90;;;;;;5117111;28;20040;-79
2022/11/09 00:17:43;;;;;;;4.97;2.33;;;12.70;99.90;;;;;;5117056;28;20069;-80
2022/11/09 00:20:09;;;;;;;6.60;2.70;;;12.70;99.90;;;;;;5117165;28;20497;-79
2022/11/09 00:22:34;;;;;;;9.00;2.72;;;12.70;99.90;;;;;;5116791;28;20076;-80
2022/11/09 00:25:02;;;;;;;6.32;2.30;;;12.70;99.90;;;;;;5117457;28;20211;-80
2022/11/09 00:27:28;;;;;;;5.55;2.47;;;12.60;99.90;;;;;;5098709;28;20126;-80
2022/11/09 00:29:53;;;;;;;3.65;2.35;;;12.80;99.90;;;;;;5116689;28;20142;-80
2022/11/09 00:32:19;;;;;;;6.38;2.50;;;12.70;99.90;;;;;;5116783;28;20113;-79
2022/11/09 00:34:45;;;;;;;9.98;2.47;;;12.70;99.90;;;;;;5116745;27;20402;-80
2022/11/09 00:37:10;;;;;;;9.13;2.70;;;12.70;99.90;;;;;;5116634;28;20051;-80
2022/11/09 00:39:36;;;;;;;6.03;2.72;;;12.80;99.90;;;;;;5116333;28;20047;-79
2022/11/09 00:42:01;;;;;;;6.28;2.53;;;12.80;99.90;;;;;;5116435;28;20035;-80
2022/11/09 00:44:27;;;;;;;5.47;2.50;;;12.70;99.90;;;;;;5116720;28;20047;-79
2022/11/09 00:46:52;;;;;;;6.00;2.38;;;12.80;99.90;;;;;;5116370;28;20046;-80
2022/11/09 00:49:18;;;;;;;5.95;2.65;;;13.10;99.90;;;;;;5116126;28;20044;-80
2022/11/09 00:51:43;;;;;;;7.70;2.97;;;12.70;99.90;;;;;;5116415;28;20086;-80
2022/11/09 00:54:09;;;;;;;9.55;3.33;;;12.70;99.90;;;;;;5115982;28;20040;-80
2022/11/09 00:56:35;;;;;;;3.80;2.40;;;12.70;99.90;;;;;;5116372;28;20536;-80
2022/11/09 00:59:00;;;;;;;5.97;2.67;;;12.70;99.90;;;;;;5116425;28;20043;-80
2022/11/09 01:01:26;;;;;;;4.32;2.55;;;12.90;99.90;;;;;;5114190;28;20047;-79
2022/11/09 01:03:52;;;;;;;8.02;2.58;;;12.70;99.90;;;;;;5116183;28;20369;-79
2022/11/09 01:06:22;;;;;;;6.60;2.50;;;12.70;99.90;;;;;;5115918;28;20087;-79
2022/11/09 01:08:49;;;;;;;4.03;2.60;;;12.80;99.90;;;;;;5116035;28;20036;-80
2022/11/09 01:11:16;;;;;;;4.47;2.35;;;12.80;99.90;;;;;;5116025;28;20039;-79
2022/11/09 01:13:42;;;;;;;8.38;2.60;;;12.90;99.90;;;;;;5115638;28;20546;-80
2022/11/09 01:16:11;;;;;;;7.45;2.92;;;12.90;99.90;;;;;;5115957;28;20169;-79
2022/11/09 01:18:37;;;;;;;4.80;2.45;;;13.00;99.90;;;;;;5115727;28;20543;-80
2022/11/09 01:21:05;;;;;;;5.00;2.60;;;13.00;99.90;;;;;;5115678;28;20035;-80
2022/11/09 01:23:31;;;;;;;5.20;2.28;;;13.10;99.90;;;;;;5115795;28;20051;-80
2022/11/09 01:26:01;;;;;;;9.57;2.30;;;13.20;99.90;;;;;;5115798;28;20067;-80
2022/11/09 01:28:27;;;;;;;7.10;2.55;;;13.30;99.90;;;;;;5115552;28;20047;-80
2022/11/09 01:30:53;;;;;;;4.88;2.47;;;13.10;99.90;;;;;;5115082;28;20047;-79
2022/11/09 01:33:19;;;;;;;7.75;2.40;;;13.10;99.90;;;;;;5115715;28;20036;-80
2022/11/09 01:35:45;;;;;;;6.90;2.50;;;13.10;99.90;;;;;;5114360;28;20048;-79
2022/11/09 01:38:11;;;;;;;5.23;2.40;;;13.20;99.90;;;;;;5115510;28;20043;-79
2022/11/09 01:40:38;;;;;;;6.47;2.40;;;13.10;99.90;;;;;;5115313;28;20062;-79
2022/11/09 01:43:18;;;;;;;4.07;2.10;;;13.10;99.90;;;;;;5115350;28;20039;-80
2022/11/09 01:45:55;;;;;;;6.88;2.63;;;12.80;99.90;;;;;;5115255;27;20135;-79
2022/11/09 01:48:32;;;;;;;6.68;2.30;;;13.00;99.90;;;;;;5115271;28;20082;-80
2022/11/09 01:51:05;;;;;;;5.50;2.40;;;12.90;99.90;;;;;;5115312;28;20105;-80
2022/11/09 01:53:36;;;;;;;6.68;2.30;;;13.00;99.90;;;;;;5115572;28;20096;-79
2022/11/09 01:56:05;;;;;;;5.25;2.60;;;12.90;99.90;;;;;;5114208;28;20051;-79
2022/11/09 01:58:46;;;;;;;6.78;2.33;;;12.90;99.90;;;;;;5115040;28;20042;-79
2022/11/09 02:01:14;;;;;;;9.02;2.70;;;12.80;99.90;;;;;;5115543;28;20096;-80
2022/11/09 02:03:51;;;;;;;5.80;2.60;;;12.80;99.90;;;;;;5114958;27;20044;-80
2022/11/09 02:06:19;;;;;;;6.43;2.60;;;12.70;99.90;;;;;;5115204;28;20039;-80
2022/11/09 02:08:49;;;;;;;5.75;2.28;;;12.80;99.90;;;;;;5115029;28;20398;-79
2022/11/09 02:11:20;;;;;;;5.40;2.20;;;12.70;99.90;;;;;;5114816;28;20044;-79
2022/11/09 02:13:52;;;;;;;7.07;1.98;;;12.60;99.90;;;;;;5115140;28;20055;-79
2022/11/09 02:16:17;;;;;;;9.32;2.72;;;12.90;99.90;;;;;;5115108;28;20102;-80
2022/11/09 02:18:55;;;;;;;6.97;2.45;;;12.50;99.90;;;;;;5114501;28;20079;-80
2022/11/09 02:21:23;;;;;;;6.43;3.20;;;12.50;99.90;;;;;;5114624;28;20126;-80
2022/11/09 02:23:50;;;;;;;5.43;2.70;;;12.50;99.90;;;;;;5114603;28;20086;-79
2022/11/09 02:26:25;;;;;;;4.95;2.55;;;12.50;99.90;;;;;;5114339;28;20485;-79
2022/11/09 02:28:54;;;;;;;7.90;2.70;;;12.50;99.90;;;;;;5114841;28;20372;-79
2022/11/09 02:31:21;;;;;;;6.38;2.42;;;12.50;99.90;;;;;;5114694;28;20050;-80
2022/11/09 02:33:50;;;;;;;10.35;2.78;;;12.50;99.90;;;;;;5114535;28;20498;-80
2022/11/09 02:36:15;;;;;;;5.22;2.60;;;12.40;99.90;;;;;;5114419;28;20083;-79
2022/11/09 02:38:41;;;;;;;6.32;2.05;;;12.40;99.90;;;;;;5114485;28;20079;-80
2022/11/09 02:41:08;;;;;;;5.75;2.38;;;12.40;99.90;;;;;;5114926;28;20032;-79
2022/11/09 02:43:35;;;;;;;6.90;2.35;;;12.30;99.90;;;;;;5114388;28;20160;-80
2022/11/09 02:46:01;;;;;;;3.55;2.40;;;12.40;99.90;;;;;;5114279;28;20177;-79
2022/11/09 02:48:27;;;;;;;13.57;2.70;;;12.40;99.90;;;;;;5114274;28;20539;-79
2022/11/09 02:50:52;;;;;;;14.35;3.00;;;12.30;99.90;;;;;;5114434;28;20035;-80
2022/11/09 02:53:18;;;;;;;7.78;2.33;;;12.30;99.90;;;;;;5113932;28;20168;-79
2022/11/09 02:55:43;;;;;;;4.32;2.42;;;12.50;99.90;;;;;;5114197;28;20483;-80
2022/11/09 02:58:09;;;;;;;7.00;2.50;;;12.30;99.90;;;;;;5114205;28;20101;-80
2022/11/09 03:00:34;;;;;;;10.55;2.85;;;12.30;99.90;;;;;;5114380;28;20039;-80
2022/11/09 03:03:00;;;;;;;9.55;2.72;;;12.60;99.90;;;;;;5114156;28;20112;-80
2022/11/09 03:05:26;;;;;;;6.07;2.40;;;12.20;99.90;;;;;;5114131;28;20085;-79
2022/11/09 03:07:51;;;;;;;5.07;2.10;;;12.20;99.90;;;;;;5112934;28;20040;-80
2022/11/09 03:10:17;;;;;;;7.60;2.22;;;12.20;99.90;;;;;;5114088;28;20047;-80
2022/11/09 03:12:42;;;;;;;7.85;2.20;;;12.20;99.90;;;;;;5112976;28;20088;-79
2022/11/09 03:15:08;;;;;;;7.53;2.67;;;12.30;99.90;;;;;;5113138;28;20047;-78
2022/11/09 03:17:35;;;;;;;9.60;2.60;;;12.20;99.90;;;;;;5114049;28;20493;-80
2022/11/09 03:20:01;;;;;;;8.27;2.85;;;12.20;99.90;;;;;;5113983;28;20606;-80
2022/11/09 03:22:26;;;;;;;10.80;2.65;;;12.20;99.90;;;;;;5113821;28;20054;-80
2022/11/09 03:24:52;;;;;;;7.10;2.60;;;12.20;99.90;;;;;;5114491;28;20039;-79
2022/11/09 03:27:17;;;;;;;5.70;2.17;;;12.50;99.90;;;;;;5118064;28;20503;-80
2022/11/09 03:29:43;;;;;;;7.97;2.55;;;12.10;99.90;;;;;;5117637;28;20056;-80
2022/11/09 03:32:09;;;;;;;7.57;2.53;;;12.20;99.90;;;;;;5117903;28;20407;-80
2022/11/09 03:34:35;;;;;;;6.13;2.50;;;12.10;99.90;;;;;;5117902;28;20069;-80
2022/11/09 03:37:01;;;;;;;8.35;2.70;;;12.00;99.90;;;;;;5117725;27;20036;-79
2022/11/09 03:39:26;;;;;;;4.38;2.40;;;11.90;99.90;;;;;;5118291;28;20048;-80
2022/11/09 03:41:52;;;;;;;6.40;2.30;;;12.00;99.90;;;;;;5116577;28;20461;-80
2022/11/09 03:44:18;;;;;;;6.50;2.80;;;12.10;99.90;;;;;;5117700;28;20082;-81
2022/11/09 03:46:44;;;;;;;6.07;2.50;;;11.90;99.90;;;;;;5117694;28;20052;-80
2022/11/09 03:49:10;;;;;;;9.68;2.60;;;12.00;99.90;;;;;;5117616;28;20046;-80
2022/11/09 03:51:36;;;;;;;7.63;2.92;;;12.00;99.90;;;;;;5117550;28;20069;-81
2022/11/09 03:54:01;;;;;;;5.47;2.83;;;12.20;99.90;;;;;;5117727;28;20368;-79
2022/11/09 03:56:27;;;;;;;3.80;2.30;;;12.00;99.90;;;;;;5117436;28;20126;-79
2022/11/09 03:58:53;;;;;;;8.40;2.60;;;11.80;99.90;;;;;;5116658;28;20082;-80
2022/11/09 04:01:18;;;;;;;7.13;2.63;;;12.50;99.90;;;;;;5117268;27;20043;-80
2022/11/09 04:03:44;;;;;;;7.18;2.67;;;12.00;99.90;;;;;;5117254;27;20471;-79
2022/11/09 04:06:09;;;;;;;4.57;2.10;;;12.20;99.90;;;;;;5117172;28;20104;-79
2022/11/09 04:08:35;;;;;;;7.50;2.15;;;12.10;99.90;;;;;;5117161;28;20039;-80
2022/11/09 04:11:00;;;;;;;6.18;2.15;;;12.00;99.90;;;;;;5117326;28;20071;-80
2022/11/09 04:13:26;;;;;;;8.60;2.47;;;12.00;99.90;;;;;;5117089;28;20403;-79
2022/11/09 04:15:52;;;;;;;4.82;2.88;;;11.90;99.90;;;;;;5099088;28;20464;-80
2022/11/09 04:18:17;;;;;;;7.25;2.70;;;12.00;99.90;;;;;;5117063;28;20092;-79
2022/11/09 04:20:43;;;;;;;8.50;2.50;;;12.00;99.90;;;;;;5116687;28;20491;-80
2022/11/09 04:23:11;;;;;;;6.60;2.78;;;12.10;99.90;;;;;;5115406;28;20044;-79
2022/11/09 04:25:38;;;;;;;5.68;2.50;;;12.20;99.90;;;;;;5116560;28;20407;-79
2022/11/09 04:28:05;;;;;;;6.95;2.70;;;12.20;99.90;;;;;;5117071;28;20055;-80
2022/11/09 04:30:32;;;;;;;;;;;12.20;99.90;;;;;;5117455;28;20124;-81
2022/11/09 04:32:59;;;;;;;4.43;2.50;;;12.30;99.90;;;;;;5116250;28;20399;-80
2022/11/09 04:35:25;;;;;;;;;;;12.30;99.90;;;;;;5116144;28;20043;-80
2022/11/09 04:37:55;;;;;;;10.52;2.88;;;12.30;99.90;;;;;;5115568;28;19924;-80
2022/11/09 04:40:21;;;;;;;8.25;3.10;;;12.30;99.90;;;;;;5116451;28;20040;-80
2022/11/09 04:42:46;;;;;;;6.73;2.83;;;12.20;99.90;;;;;;5116343;28;20096;-79
2022/11/09 04:45:12;;;;;;;5.13;2.78;;;12.30;99.90;;;;;;5116318;28;20044;-80
2022/11/09 04:47:37;;;;;;;5.38;2.50;;;12.20;99.90;;;;;;5116415;28;20036;-80
2022/11/09 04:50:03;;;;;;;5.35;3.38;;;12.20;99.90;;;;;;5116319;28;20488;-80
2022/11/09 04:52:29;;;;;;;8.20;2.90;;;12.20;99.90;;;;;;5115875;28;20085;-80
2022/11/09 04:54:55;;;;;;;6.85;2.47;;;11.90;99.90;;;;;;5116193;28;20132;-80
2022/11/09 04:57:20;;;;;;;6.45;2.78;;;12.10;99.90;;;;;;5116089;28;20043;-79
2022/11/09 04:59:46;;;;;;;6.57;2.70;;;12.10;99.90;;;;;;5116006;28;20039;-80
2022/11/09 05:02:11;;;;;;;12.77;2.85;;;12.10;99.90;;;;;;5115949;28;20048;-80
2022/11/09 05:04:37;;;;;;;6.15;2.50;;;12.10;99.90;;;;;;5116104;28;20082;-80
2022/11/09 05:07:02;;;;;;;7.22;2.40;;;12.10;99.90;;;;;;5115861;28;20040;-80
2022/11/09 05:09:28;;;;;;;7.57;2.60;;;12.10;99.90;;;;;;5115908;28;20040;-80
2022/11/09 05:11:53;;;;;;;6.10;2.83;;;12.10;99.90;;;;;;5116383;28;20036;-80
2022/11/09 05:14:19;;;;;;;6.93;2.90;;;11.60;99.90;;;;;;5115727;28;20039;-79
2022/11/09 05:16:45;;;;;;;8.05;2.58;;;12.00;99.90;;;;;;5115966;28;20043;-79
2022/11/09 05:19:10;;;;;;;9.02;2.53;;;12.00;99.90;;;;;;5115740;27;20115;-80
2022/11/09 05:21:36;;;;;;;6.35;2.60;;;12.00;99.90;;;;;;5115267;28;20039;-80
2022/11/09 05:24:01;;;;;;;7.85;2.53;;;12.00;99.90;;;;;;5114763;28;20196;-80
2022/11/09 05:26:36;;;;;;;7.45;2.65;;;11.90;99.90;;;;;;5115740;28;20066;-81
2022/11/09 05:29:05;;;;;;;6.70;2.60;;;12.20;99.90;;;;;;5115462;28;20094;-79
2022/11/09 05:31:31;;;;;;;5.80;2.60;;;12.20;99.90;;;;;;5115466;28;20472;-80
2022/11/09 05:33:58;;;;;;;4.97;2.67;;;11.90;99.90;;;;;;5115613;28;20048;-80
2022/11/09 05:36:24;;;;;;;;;;;12.00;99.90;;;;;;5115950;28;20327;-80
2022/11/09 05:38:49;;;;;;;9.38;2.83;;;12.00;99.90;;;;;;5115412;28;19973;-79
2022/11/09 05:41:16;;;;;;;7.00;2.40;;;11.90;99.90;;;;;;5115598;28;20142;-79
2022/11/09 05:43:43;;;;;;;5.72;2.33;;;12.20;99.90;;;;;;5115349;28;20051;-79
2022/11/09 05:46:09;;;;;;;11.30;2.60;;;11.90;99.90;;;;;;5115291;28;20079;-80
2022/11/09 05:48:35;;;;;;;10.30;3.30;;;12.00;99.90;;;;;;5114954;28;20043;-79
2022/11/09 05:51:02;;;;;;;8.65;2.42;;;11.90;99.90;;;;;;5114099;28;20169;-80
2022/11/09 05:53:28;;;;;;;6.53;2.20;;;11.80;99.90;;;;;;5115218;28;20089;-78
2022/11/09 05:55:54;;;;;;;7.13;2.80;;;11.80;99.90;;;;;;5115124;28;20422;-80
2022/11/09 05:58:20;;;;;;;8.27;2.95;;;11.80;99.90;;;;;;5114486;28;20052;-79
2022/11/09 06:00:45;;;;;;;9.30;2.15;;;11.80;99.90;;;;;;5115037;28;20040;-80
2022/11/09 06:03:11;;;;;;;8.57;2.50;;;12.10;99.90;;;;;;5115052;28;20130;-79
2022/11/09 06:05:38;;;;;;;6.97;2.20;;;11.80;99.90;;;;;;5114978;28;20048;-79
2022/11/09 06:08:08;;;;;;;7.65;2.28;;;11.70;99.90;;;;;;5114990;28;20076;-79
2022/11/09 06:10:35;;;;;;;5.25;2.60;;;11.80;99.90;;;;;;5115185;28;20092;-79
2022/11/09 06:13:00;;;;;;;8.93;2.35;;;11.50;99.90;;;;;;5115163;28;20165;-80
2022/11/09 06:15:26;;;;;;;6.45;2.20;;;11.70;99.90;;;;;;5113656;28;20530;-79
2022/11/09 06:17:53;;;;;;;5.55;2.28;;;11.70;99.90;;;;;;5114892;28;20065;-79
2022/11/09 06:20:19;;;;;;;;;;;11.60;99.90;;;;;;5115681;28;20043;-79
2022/11/09 06:23:01;;;;;;;7.60;2.15;;;11.50;99.90;;;;;;5114436;28;19927;-80
2022/11/09 06:25:27;;;;;;;8.57;2.55;;;11.60;99.90;;;;;;5114704;28;20043;-79
2022/11/09 06:27:54;;;;;;;4.67;2.70;;;11.50;99.90;;;;;;5114621;28;20042;-80
2022/11/09 06:30:20;;;;;;;11.02;2.75;;;11.50;99.90;;;;;;5114304;28;20138;-79
2022/11/09 06:32:46;;;;;;;7.25;2.53;;;11.90;99.90;;;;;;5114426;28;20043;-79
2022/11/09 06:35:12;;;;;;;10.20;2.92;;;11.50;99.90;;;;;;5114451;28;20046;-80
2022/11/09 06:37:37;;;;;;;5.70;2.70;;;11.50;99.90;;;;;;5114904;28;20079;-79
2022/11/09 06:40:04;;;;;;;11.05;3.15;;;11.50;99.90;;;;;;5114513;28;20475;-80
2022/11/09 06:42:29;;;;;;;8.68;2.58;;;11.40;99.90;;;;;;5112898;28;20043;-79
2022/11/09 06:44:55;;;;;;;8.73;2.90;;;11.60;99.90;;;;;;5114456;28;20043;-80
2022/11/09 06:47:20;;;;;;;12.65;2.72;;;11.40;99.90;;;;;;5114300;28;20048;-80
2022/11/09 06:49:46;;;;;;;4.72;1.92;;;11.40;99.90;;;;;;5114046;28;20040;-80
2022/11/09 06:52:11;;;;;;;12.93;3.22;;;11.40;99.90;;;;;;5096350;28;20058;-79
2022/11/09 06:54:37;;;;;;;10.52;2.35;;;11.40;99.90;;;;;;5113374;28;20054;-80
2022/11/09 06:57:03;;;;;;;7.82;2.60;;;11.80;99.90;;;;;;5114344;28;20467;-79
2022/11/09 06:59:28;;;;;;;4.28;2.35;;;11.40;99.90;;;;;;5113667;28;20192;-80
2022/11/09 07:01:54;;;;;;;8.98;2.40;;;11.30;99.90;;;;;;5114129;28;20039;-80
2022/11/09 07:04:20;;;;;;;9.63;2.45;;;11.30;99.90;;;;;;5113104;28;20091;-79
2022/11/09 07:06:45;;;;;;;8.75;2.42;;;11.30;99.90;;;;;;5114057;28;20498;-79
2022/11/09 07:09:11;;;;;;;9.32;2.65;;;11.30;99.90;;;;;;5114363;28;20119;-80
2022/11/09 07:11:37;;;;;;;9.20;2.58;;;11.30;99.90;;;;;;5114292;28;20035;-78
2022/11/09 07:14:03;;;;;;;10.85;2.92;;;11.30;99.90;;;;;;5114107;28;20036;-79
2022/11/09 07:16:29;;;;;;;9.30;2.90;;;11.30;99.90;;;;;;5112823;28;20086;-79
2022/11/09 07:18:55;;;;;;;8.90;2.40;;;11.30;99.90;;;;;;5114230;28;20286;-80
2022/11/09 07:21:21;;;;;;;9.80;2.40;;;11.30;99.90;;;;;;5114052;28;20092;-79
2022/11/09 07:23:47;;;;;;;8.65;2.58;;;11.40;99.90;;;;;;5113955;28;20062;-79
2022/11/09 07:26:14;;;;;;;10.48;2.72;;;11.90;99.90;;;;;;5114072;28;20040;-78
2022/11/09 07:28:40;;;;;;;6.45;2.40;;;11.30;99.90;;;;;;5112541;28;20055;-80
2022/11/09 07:31:06;;;;;;;10.90;2.80;;;11.40;99.90;;;;;;5113983;28;20127;-79
2022/11/09 07:33:32;;;;;;;7.03;2.58;;;11.20;99.90;;;;;;5113700;28;20139;-79
2022/11/09 07:35:59;;;;;;;7.25;2.50;;;11.40;99.90;;;;;;5113081;28;20088;-80
2022/11/09 07:38:27;;;;;;;9.73;2.22;;;11.40;99.90;;;;;;5113762;28;20039;-79
2022/11/09 07:40:53;;;;;;;7.65;2.28;;;11.40;99.90;;;;;;5113727;28;20083;-80
2022/11/09 07:43:19;;;;;;;6.18;2.40;;;11.40;99.90;;;;;;5113724;28;20083;-80
2022/11/09 07:45:44;;;;;;;6.83;2.43;;;11.40;99.90;;;;;;5113795;28;20093;-79
2022/11/09 07:48:11;;;;;;;14.88;3.05;;;11.40;99.90;;;;;;5113800;28;20289;-79
2022/11/09 07:50:38;;;;;;;9.65;2.60;;;11.50;99.90;;;;;;5114097;28;20130;-79
2022/11/09 07:53:06;;;;;;;;;;;11.50;99.90;;;;;;5114177;28;20040;-78
2022/11/09 07:55:32;;;;;;;5.97;2.30;;;11.80;99.90;;;;;;5113657;28;19984;-79
2022/11/09 07:58:12;;;;;;;7.63;2.40;;;11.60;99.90;;;;;;5113770;28;20056;-79
2022/11/09 08:00:39;;;;;;;10.60;2.58;;;11.60;99.90;;;;;;5114161;28;20216;-80
2022/11/09 08:03:06;;;;;;;7.43;2.50;;;11.70;99.90;;;;;;5113582;28;20047;-78
2022/11/09 08:05:32;;;;;;;7.85;2.50;;;11.70;99.90;;;;;;5113656;28;20059;-78
2022/11/09 08:08:01;;;;;;;9.07;2.88;;;11.70;99.90;;;;;;5113491;28;20058;-80
2022/11/09 08:10:27;;;;;;;8.32;2.70;;;11.70;99.90;;;;;;5114395;28;20060;-80
2022/11/09 08:12:58;;;;;;;7.82;2.03;;;11.70;99.90;;;;;;5117117;28;20040;-79
2022/11/09 08:15:25;;;;;;;7.18;2.55;;;11.90;99.90;;;;;;5117184;28;20122;-79
2022/11/09 08:17:51;;;;;;;13.73;3.13;;;11.80;99.90;;;;;;5117003;28;20135;-80
2022/11/09 08:20:18;;;;;;;14.93;3.10;;;12.10;99.90;;;;;;5115971;28;20392;-79
2022/11/09 08:22:45;;;;;;;9.30;2.22;;;11.80;99.90;;;;;;5116991;28;20048;-80
2022/11/09 08:25:12;;;;;;;12.68;2.88;;;11.90;99.90;;;;;;5116843;28;20084;-79
2022/11/09 08:27:40;;;;;;;;;;;12.00;99.90;;;;;;5116965;28;20487;-79
2022/11/09 08:30:12;;;;;;;8.98;2.30;;;12.00;99.90;;;;;;5117108;28;19969;-79
2022/11/09 08:32:39;;;;;;;9.95;2.25;;;12.00;99.90;;;;;;5116792;28;20035;-79
2022/11/09 08:35:05;;;;;;;9.20;2.38;;;12.00;99.90;;;;;;5116848;28;20051;-79
2022/11/09 08:37:33;;;;;;;12.20;2.57;;;12.10;99.90;;;;;;5116633;28;20495;-78
2022/11/09 08:39:59;;;;;;;7.68;2.70;;;12.40;99.90;;;;;;5116752;28;20043;-79
2022/11/09 08:42:24;;;;;;;10.23;3.10;;;12.70;99.90;;;;;;5116599;28;20520;-80
2022/11/09 08:44:50;;;;;;;8.63;2.72;;;12.10;99.90;;;;;;5116605;28;20048;-78
2022/11/09 08:47:15;;;;;;;11.30;3.55;;;12.20;99.90;;;;;;5116463;28;20040;-79
2022/11/09 08:49:42;;;;;;;13.10;2.75;;;12.40;99.90;;;;;;5116487;28;20165;-79
2022/11/09 08:52:08;;;;;;;;;;;12.40;99.90;;;;;;5116733;28;20054;-79
2022/11/09 08:54:35;;;;;;;13.82;3.60;;;12.40;99.90;;;;;;5116527;28;19920;-79
2022/11/09 08:57:01;;;;;;;;;;;12.60;99.90;;;;;;5117153;28;20471;-79
2022/11/09 08:59:26;;;;;;;9.07;2.72;;;12.50;99.90;;;;;;5117072;28;19926;-79
2022/11/09 09:01:52;;;;;;;14.65;3.58;;;12.60;99.90;;;;;;5116383;28;20055;-80
2022/11/09 09:04:18;;;;;;;9.05;3.15;;;12.60;99.90;;;;;;5116556;28;20495;-78
2022/11/09 09:06:44;;;;;;;11.75;3.10;;;12.60;99.90;;;;;;5116271;28;20035;-79
2022/11/09 09:09:10;;;;;;;9.48;3.67;;;12.70;99.90;;;;;;5116311;28;20035;-79
2022/11/09 09:11:35;;;;;;;12.25;2.95;;;12.70;99.90;;;;;;5115975;28;20043;-79
2022/11/09 09:14:01;;;;;;;6.95;2.40;;;12.70;99.90;;;;;;5116083;28;20062;-80
2022/11/09 09:16:26;;;;;;;10.75;2.90;;;13.00;99.90;;;;;;5115918;28;20043;-79
2022/11/09 09:18:52;;;;;;;8.93;3.95;;;12.80;99.90;;;;;;5115957;28;20040;-80
2022/11/09 09:21:18;;;;;;;12.45;4.40;;;12.90;99.90;;;;;;5116215;28;20043;-78
2022/11/09 09:23:45;;;;;;;10.93;4.75;;;12.90;99.90;;;;;;5115244;28;20498;-79
2022/11/09 09:26:11;;;;;;;13.80;5.05;;;13.00;99.90;;;;;;5115655;28;20051;-80
2022/11/09 09:28:37;;;;;;;14.87;4.77;;;13.00;99.90;;;;;;5115307;28;20379;-79
2022/11/09 09:31:03;;;;;;;24.77;5.68;;;13.30;99.90;;;;;;5116367;28;20441;-79
2022/11/09 09:33:29;;;;;;;15.07;4.80;;;13.20;99.90;;;;;;5115629;28;20036;-80
2022/11/09 09:35:56;;;;;;;16.38;5.03;;;13.30;99.90;;;;;;5115407;28;20040;-79
2022/11/09 09:38:22;;;;;;;11.75;3.40;;;13.20;99.90;;;;;;5115530;28;20121;-80
2022/11/09 09:40:47;;;;;;;15.03;3.57;;;13.30;99.90;;;;;;5115397;28;20083;-79
2022/11/09 09:43:45;;;;;;;13.50;3.45;;;13.60;99.90;;;;;;5115572;28;20104;-79
2022/11/09 09:46:20;;;;;;;14.35;3.50;;;13.70;99.90;;;;;;5115006;28;20403;-79
2022/11/09 09:49:12;;;;;;;17.33;3.10;;;13.90;99.90;;;;;;5115203;28;20047;-79
2022/11/09 09:51:46;;;;;;;6.03;2.63;;;13.70;99.90;;;;;;5107191;28;20491;-80
2022/11/09 09:54:19;;;;;;;11.73;2.60;;;13.70;99.90;;;;;;5115573;28;20039;-79
2022/11/09 09:56:48;;;;;;;11.73;2.75;;;13.70;99.90;;;;;;5115206;28;20131;-80
2022/11/09 09:59:30;;;;;;;10.38;2.72;;;13.70;99.90;;;;;;5115132;28;20043;-79
2022/11/09 10:01:57;;;;;;;10.30;2.63;;;13.70;99.90;;;;;;5114952;28;20504;-80
2022/11/09 10:04:45;;;;;;;13.98;2.88;;;13.70;99.90;;;;;;5114987;28;20131;-79
2022/11/09 10:07:26;;;;;;;10.52;2.72;;;13.70;99.90;;;;;;5114985;28;20055;-79
2022/11/09 10:10:14;;;;;;;7.18;2.50;;;13.80;99.90;;;;;;5114997;28;20051;-79
2022/11/09 10:12:45;;;;;;;;;;;13.70;99.90;;;;;;5115740;28;20050;-80
2022/11/09 10:15:23;;;;;;;8.60;2.65;;;13.90;99.90;;;;;;5115209;28;19930;-80
2022/11/09 10:18:07;;;;;;;12.90;3.03;;;14.00;99.90;;;;;;5114600;28;20047;-79
2022/11/09 10:20:57;;;;;;;9.43;3.40;;;14.00;99.90;;;;;;5114621;28;20043;-80
2022/11/09 10:23:59;;;;;;;13.40;3.10;;;14.00;99.90;;;;;;5114763;28;20083;-79
2022/11/09 10:26:41;;;;;;;8.18;2.85;;;13.90;99.90;;;;;;5114668;28;20047;-79
2022/11/09 10:29:21;;;;;;;10.80;2.63;;;13.90;99.90;;;;;;5114393;28;20047;-80
2022/11/09 10:31:49;;;;;;;12.18;3.10;;;13.90;99.90;;;;;;5114698;28;20044;-79
2022/11/09 10:34:31;;;;;;;7.05;2.80;;;13.90;99.90;;;;;;5113573;28;20043;-80
2022/11/09 10:37:22;;;;;;;11.27;2.67;;;14.00;99.90;;;;;;5114633;28;20043;-79
2022/11/09 10:39:53;;;;;;;10.85;2.85;;;14.00;99.90;;;;;;5114482;28;20088;-78
2022/11/09 10:42:19;;;;;;;10.07;3.47;;;14.00;99.90;;;;;;5114815;28;20051;-79
2022/11/09 10:44:44;;;;;;;9.83;2.70;;;14.00;99.90;;;;;;5114433;28;20061;-79
2022/11/09 10:47:13;;;;;;;10.13;2.50;;;13.90;99.90;;;;;;5114389;28;20048;-80
2022/11/09 10:49:39;;;;;;;11.40;2.40;;;14.10;99.90;;;;;;5114397;28;20048;-80
2022/11/09 10:52:38;;;;;;;9.65;2.72;;;14.20;99.90;;;;;;5112795;28;20089;-79
2022/11/09 10:55:26;;;;;;;8.73;2.38;;;14.30;99.90;;;;;;5114647;28;20387;-79
2022/11/09 10:57:59;;;;;;;14.03;2.53;;;14.30;99.90;;;;;;5114409;28;20043;-80
2022/11/09 11:00:26;;;;;;;10.00;2.70;;;14.20;99.90;;;;;;5112984;28;20286;-79
2022/11/09 11:02:53;;;;;;;10.27;2.80;;;14.40;99.90;;;;;;5114138;28;20044;-80
2022/11/09 11:05:25;;;;;;;13.55;2.28;;;14.40;99.90;;;;;;5096768;28;20177;-79
2022/11/09 11:07:50;;;;;;;8.65;2.60;;;14.40;99.90;;;;;;5114184;28;20095;-80
2022/11/09 11:10:16;;;;;;;9.07;2.53;;;14.80;99.90;;;;;;5114127;28;20126;-80
2022/11/09 11:12:42;;;;;;;8.20;2.53;;;14.40;99.90;;;;;;5114354;28;20054;-78
2022/11/09 11:15:27;;;;;;;6.30;2.20;;;14.40;99.90;;;;;;5114251;28;20047;-79
2022/11/09 11:18:23;;;;;;;9.23;2.58;;;14.70;99.90;;;;;;5114234;28;20044;-80
2022/11/09 11:21:13;;;;;;;11.50;2.58;;;14.60;99.90;;;;;;5105844;28;20058;-79
2022/11/09 11:23:39;;;;;;;6.57;2.10;;;14.70;99.90;;;;;;5114025;28;20139;-80
2022/11/09 11:26:28;;;;;;;7.77;2.30;;;14.70;99.90;;;;;;5114277;28;20530;-79
2022/11/09 11:29:01;;;;;;;12.02;2.17;;;14.90;99.90;;;;;;5113717;28;20048;-79
2022/11/09 11:31:27;;;;;;;7.13;2.17;;;14.90;99.90;;;;;;5113938;28;20082;-80
2022/11/09 11:33:52;;;;;;;6.90;2.25;;;14.90;99.90;;;;;;5113899;28;20054;-79
2022/11/09 11:36:38;;;;;;;9.33;2.17;;;14.90;99.90;;;;;;5113826;28;20475;-80
2022/11/09 11:39:21;;;;;;;10.20;2.30;;;14.90;99.90;;;;;;5114115;28;20079;-79
2022/11/09 11:42:00;;;;;;;8.55;2.47;;;14.80;99.90;;;;;;5113580;28;20040;-80
2022/11/09 11:44:40;;;;;;;10.85;2.40;;;14.80;99.90;;;;;;5113911;28;20113;-80
2022/11/09 11:47:24;;;;;;;12.75;2.55;;;14.70;99.90;;;;;;5117563;28;20083;-80
2022/11/09 11:50:10;;;;;;;14.60;2.72;;;14.60;99.90;;;;;;5117633;28;20058;-80
2022/11/09 11:53:15;;;;;;;11.30;2.70;;;14.50;99.90;;;;;;5117445;28;20051;-80
2022/11/09 11:56:18;;;;;;;10.98;2.80;;;14.40;99.90;;;;;;5117732;28;20044;-79
2022/11/09 11:59:08;;;;;;;11.07;2.47;;;14.20;99.90;;;;;;5117356;28;20040;-79
2022/11/09 12:01:56;;;;;;;11.77;3.15;;;14.10;99.90;;;;;;5117763;28;20380;-80
2022/11/09 12:04:41;;;;;;;;;;;14.10;99.90;;;;;;5118053;28;20126;-79
2022/11/09 12:07:25;;;;;;;6.97;1.90;;;14.00;99.90;;;;;;5117283;28;19919;-80
2022/11/09 12:10:07;;;;;;;13.98;3.00;;;14.00;99.90;;;;;;5117294;28;20101;-80
2022/11/09 12:12:51;;;;;;;8.45;2.17;;;13.90;99.90;;;;;;5117257;28;20036;-78
2022/11/09 12:15:28;;;;;;;9.02;2.10;;;14.00;99.90;;;;;;5117160;28;20039;-80
2022/11/09 12:18:15;;;;;;;8.03;2.40;;;14.10;99.90;;;;;;5117902;28;20043;-79
2022/11/09 12:20:46;;;;;;;10.13;2.30;;;14.30;99.90;;;;;;5117028;28;20047;-79
2022/11/09 12:23:17;;;;;;;7.88;2.00;;;14.40;99.90;;;;;;5117191;28;20051;-80
2022/11/09 12:25:54;;;;;;;8.88;2.08;;;14.30;99.90;;;;;;5116925;28;20373;-79
2022/11/09 12:28:31;;;;;;;8.57;2.40;;;14.30;99.90;;;;;;5116906;28;20126;-79
2022/11/09 12:31:00;;;;;;;7.38;2.22;;;14.20;99.90;;;;;;5116887;28;20048;-78
2022/11/09 12:33:42;;;;;;;8.48;2.30;;;14.20;99.90;;;;;;5116774;28;20203;-79
2022/11/09 12:36:16;;;;;;;8.82;1.98;;;14.20;99.90;;;;;;5115844;28;20050;-80
2022/11/09 12:38:45;;;;;;;7.32;2.00;;;14.10;99.90;;;;;;5116516;28;20495;-78
2022/11/09 12:41:22;;;;;;;8.05;2.30;;;14.10;99.90;;;;;;5116928;28;20074;-79
2022/11/09 12:43:51;;;;;;;;;;;14.00;99.90;;;;;;5117090;28;20093;-79
2022/11/09 12:46:21;;;;;;;10.75;2.17;;;14.10;99.90;;;;;;5116652;28;19978;-80
2022/11/09 12:48:47;;;;;;;8.32;2.22;;;14.10;99.90;;;;;;5115560;28;20368;-79
2022/11/09 12:51:14;;;;;;;7.50;1.63;;;14.20;99.90;;;;;;5116844;28;20048;-79
2022/11/09 12:53:40;;;;;;;7.45;1.85;;;14.30;99.90;;;;;;5116312;28;20624;-79
2022/11/09 12:56:26;;;;;;;7.27;2.17;;;14.20;99.90;;;;;;5115146;28;20051;-80
2022/11/09 12:58:51;;;;;;;11.63;2.67;;;14.20;99.90;;;;;;5114686;28;20126;-80